Time;durP1;ratioP1;P1;durP2;ratioP2;P2;SDS_P1;SDS_P2;PMS_P1;PMS_P2;Temp;Humidity;BMP_temperature;BMP_pressure;BME280_temperature;BME280_humidity;BME280_pressure;Samples;Min_cycle;Max_cycle;Signal;HPM_P1;HPM_P2
2022/11/04 00:01:52;;;;;;;2.97;1.23;;;;;;;8.84;100.00;98489.81;7392297;19;20029;-58
2022/11/04 00:04:21;;;;;;;0.95;0.95;;;;;;;8.80;100.00;98499.63;7388954;19;20097;-58
2022/11/04 00:06:48;;;;;;;0.65;0.57;;;;;;;8.66;100.00;98501.34;7390113;19;20011;-58
2022/11/04 00:09:26;;;;;;;2.60;0.75;;;;;;;8.60;100.00;98508.84;7390386;19;20014;-58
2022/11/04 00:14:37;;;;;;;1.27;0.75;;;;;;;8.53;100.00;98517.66;7387087;19;20006;-58
2022/11/04 00:17:21;;;;;;;3.75;1.00;;;;;;;8.55;100.00;98517.91;7390019;19;20014;-58
2022/11/04 00:30:57;;;;;;;1.15;1.10;;;;;;;8.50;100.00;98546.38;7392674;19;20015;-58
2022/11/04 00:33:26;;;;;;;1.85;0.45;;;;;;;8.52;100.00;98557.72;7388373;19;20007;-58
2022/11/04 00:35:55;;;;;;;0.63;0.63;;;;;;;8.55;100.00;98558.75;7389692;19;20063;-57
2022/11/04 00:38:23;;;;;;;2.58;1.05;;;;;;;8.51;100.00;98572.09;7387883;19;20463;-57
2022/11/04 00:40:50;;;;;;;1.13;1.05;;;;;;;8.47;100.00;98560.47;7391678;19;20490;-58
2022/11/04 00:43:16;;;;;;;2.45;0.80;;;;;;;8.46;100.00;98568.03;7393275;19;20010;-58
2022/11/04 00:45:42;;;;;;;10.75;1.10;;;;;;;8.36;100.00;98572.22;7389760;19;20018;-58
2022/11/04 00:48:09;;;;;;;0.60;0.60;;;;;;;8.24;100.00;98581.69;7391256;19;20011;-57
2022/11/04 00:50:35;;;;;;;1.67;0.93;;;;;;;8.15;100.00;98582.59;7390980;19;20014;-58
2022/11/04 00:53:02;;;;;;;0.38;0.30;;;;;;;8.10;100.00;98588.13;7389672;19;20011;-57
2022/11/04 00:55:28;;;;;;;0.57;0.57;;;;;;;8.08;100.00;98598.91;7394679;19;20013;-57
2022/11/04 00:57:55;;;;;;;5.68;0.75;;;;;;;7.99;100.00;98599.09;7389695;19;20021;-58
2022/11/04 01:00:21;;;;;;;1.85;1.20;;;;;;;7.86;100.00;98612.56;7389830;19;20340;-58
2022/11/04 01:02:47;;;;;;;1.65;0.63;;;;;;;7.71;100.00;98622.97;7388214;19;20015;-58
2022/11/04 01:05:13;;;;;;;0.60;0.60;;;;;;;7.64;100.00;98619.34;7388672;19;20006;-57
2022/11/04 01:07:39;;;;;;;0.70;0.70;;;;;;;7.63;100.00;98625.38;7388474;19;20022;-58
2022/11/04 01:10:06;;;;;;;1.00;0.55;;;;;;;7.59;100.00;98633.91;7389891;19;20602;-58
2022/11/04 01:12:32;;;;;;;0.20;0.20;;;;;;;7.56;100.00;98634.09;7390382;19;20022;-57
2022/11/04 01:14:59;;;;;;;2.55;1.75;;;;;;;7.40;100.00;98632.66;7387110;19;20038;-58
2022/11/04 01:17:25;;;;;;;0.15;0.15;;;;;;;7.33;100.00;98638.59;7388389;19;20018;-58
2022/11/04 01:19:51;;;;;;;0.52;0.52;;;;;;;7.33;100.00;98633.06;7390397;19;20019;-58
2022/11/04 01:22:17;;;;;;;0.60;0.60;;;;;;;7.46;100.00;98641.78;7389231;19;20011;-57
2022/11/04 01:24:43;;;;;;;6.93;2.22;;;;;;;7.49;100.00;98657.44;7388933;19;20018;-64
2022/11/04 01:27:10;;;;;;;0.57;0.57;;;;;;;7.52;100.00;98650.94;7385258;19;20351;-64
2022/11/04 01:29:36;;;;;;;0.50;0.50;;;;;;;7.55;100.00;98666.59;7388475;19;20030;-64
2022/11/04 01:32:02;;;;;;;0.35;0.35;;;;;;;7.56;100.00;98668.09;7387802;19;20337;-64
2022/11/04 01:34:28;;;;;;;0.30;0.30;;;;;;;7.61;100.00;98669.44;7385902;19;20495;-63
2022/11/04 01:36:55;;;;;;;0.77;0.77;;;;;;;7.67;100.00;98672.28;7389807;19;20647;-64
2022/11/04 01:39:21;;;;;;;1.75;1.10;;;;;;;7.65;100.00;98683.84;7393479;19;20335;-64
2022/11/04 01:41:47;;;;;;;0.65;0.25;;;;;;;7.41;100.00;98677.72;7394006;19;20460;-64
2022/11/04 01:44:41;;;;;;;1.10;0.77;;;;;;;7.65;100.00;98676.28;7398549;19;20539;-63
2022/11/04 01:47:17;;;;;;;0.50;0.50;;;;;;;7.66;100.00;98679.81;7395330;19;20015;-64
2022/11/04 01:49:47;;;;;;;0.25;0.25;;;;;;;7.68;100.00;98676.56;7395395;19;20032;-64
2022/11/04 01:52:20;;;;;;;1.65;0.77;;;;;;;7.61;100.00;98686.06;7395054;19;20010;-64
2022/11/04 01:54:49;;;;;;;0.45;0.20;;;;;;;7.60;100.00;98690.81;7394800;19;20034;-63
2022/11/04 01:57:25;;;;;;;0.77;0.77;;;;;;;7.57;100.00;98691.03;7394293;19;20078;-64
2022/11/04 01:59:51;;;;;;;0.40;0.40;;;;;;;7.53;100.00;98696.03;7396175;19;20010;-64
2022/11/04 02:02:17;;;;;;;1.33;1.23;;;;;;;7.48;100.00;98694.69;7394335;19;20017;-58
2022/11/04 02:04:44;;;;;;;0.63;0.60;;;;;;;7.46;100.00;98697.19;7391693;19;20123;-57
2022/11/04 02:07:11;;;;;;;2.00;1.30;;;;;;;7.45;100.00;98698.41;7394014;19;20368;-58
2022/11/04 02:09:39;;;;;;;2.83;0.60;;;;;;;7.43;100.00;98700.91;7393589;19;20013;-58
2022/11/04 02:14:58;;;;;;;1.67;0.63;;;;;;;7.41;100.00;98708.94;7390642;19;20378;-57
2022/11/04 02:17:24;;;;;;;2.47;0.77;;;;;;;7.41;100.00;98705.41;7394056;19;20488;-58
2022/11/04 02:20:12;;;;;;;0.75;0.40;;;;;;;7.39;100.00;98707.91;7394541;19;20019;-57
2022/11/04 02:23:05;;;;;;;1.00;0.82;;;;;;;7.28;100.00;98714.03;7393089;19;20358;-57
2022/11/04 02:25:46;;;;;;;0.55;0.55;;;;;;;7.27;100.00;98711.75;7392610;19;20360;-58
2022/11/04 02:28:24;;;;;;;0.52;0.52;;;;;;;7.20;100.00;98718.44;7392552;19;20375;-58
2022/11/04 02:31:07;;;;;;;0.65;0.65;;;;;;;7.19;100.00;98730.75;7396382;19;20034;-57
2022/11/04 02:34:00;;;;;;;3.70;0.68;;;;;;;7.07;100.00;98733.84;7392150;19;20030;-57
2022/11/04 02:36:39;;;;;;;0.47;0.47;;;;;;;7.00;100.00;98732.22;7393267;19;20014;-58
2022/11/04 02:39:18;;;;;;;2.10;1.58;;;;;;;7.02;100.00;98729.00;7391576;19;20015;-57
2022/11/04 02:42:03;;;;;;;6.43;1.08;;;;;;;7.00;100.00;98740.53;7392250;19;20022;-58
2022/11/04 02:44:33;;;;;;;0.85;0.82;;;;;;;6.99;100.00;98747.31;7392992;19;20044;-57
2022/11/04 02:47:07;;;;;;;5.28;1.35;;;;;;;6.99;100.00;98754.84;7392159;19;20478;-58
2022/11/04 02:49:43;;;;;;;1.38;1.02;;;;;;;7.01;100.00;98766.97;7393375;19;20015;-58
2022/11/04 02:52:14;;;;;;;2.05;1.95;;;;;;;6.97;100.00;98777.47;7392686;19;20033;-57
2022/11/04 02:54:47;;;;;;;10.50;1.85;;;;;;;6.90;100.00;98777.84;7394018;19;20010;-58
2022/11/04 02:57:19;;;;;;;1.05;0.90;;;;;;;6.88;100.00;98780.31;7393361;19;20015;-57
2022/11/04 02:59:55;;;;;;;3.38;0.85;;;;;;;6.77;100.00;98780.13;7393248;19;20011;-57
2022/11/04 03:02:26;;;;;;;6.53;0.98;;;;;;;6.72;100.00;98783.53;7391934;19;20011;-58
2022/11/04 03:04:54;;;;;;;;;;;;;;;6.72;100.00;98789.84;7392573;19;20017;-58
2022/11/04 03:07:28;;;;;;;0.90;0.65;;;;;;;6.67;100.00;98792.53;7391670;19;19923;-58
2022/11/04 03:09:59;;;;;;;4.97;1.25;;;;;;;6.61;100.00;98799.94;7392033;19;20006;-58
2022/11/04 03:12:32;;;;;;;6.50;1.85;;;;;;;6.61;100.00;98808.22;7393403;19;20015;-57
2022/11/04 03:15:04;;;;;;;0.28;0.28;;;;;;;6.61;100.00;98803.47;7389500;19;20455;-57
2022/11/04 03:17:36;;;;;;;1.88;1.70;;;;;;;6.63;100.00;98805.75;7389631;19;20033;-57
2022/11/04 03:20:10;;;;;;;0.35;0.35;;;;;;;6.60;100.00;98809.47;7392068;19;20424;-58
2022/11/04 03:22:37;;;;;;;0.60;0.60;;;;;;;6.59;100.00;98819.00;7390928;19;20039;-57
2022/11/04 03:25:05;;;;;;;0.95;0.68;;;;;;;6.50;100.00;98824.59;7391111;19;20013;-57
2022/11/04 03:27:43;;;;;;;2.05;1.60;;;;;;;6.46;100.00;98832.31;7390887;19;20014;-57
2022/11/04 03:30:13;;;;;;;1.35;1.00;;;;;;;6.44;100.00;98834.78;7390252;19;20018;-57
2022/11/04 03:33:04;;;;;;;0.40;0.33;;;;;;;6.38;100.00;98842.22;7390632;19;20022;-57
2022/11/04 03:35:31;;;;;;;0.52;0.40;;;;;;;6.37;100.00;98841.44;7390035;19;20680;-58
2022/11/04 03:37:58;;;;;;;4.72;0.70;;;;;;;6.36;100.00;98851.00;7390481;19;20011;-57
2022/11/04 03:40:24;;;;;;;9.75;1.33;;;;;;;6.31;100.00;98842.56;7390430;19;20014;-58
2022/11/04 03:43:01;;;;;;;0.95;0.95;;;;;;;6.18;100.00;98842.81;7393680;19;20011;-57
2022/11/04 03:45:28;;;;;;;1.65;1.48;;;;;;;6.10;100.00;98856.22;7391153;19;20017;-58
2022/11/04 03:47:55;;;;;;;0.35;0.35;;;;;;;6.09;100.00;98865.75;7390942;19;20498;-57
2022/11/04 03:50:30;;;;;;;1.95;1.65;;;;;;;6.13;100.00;98870.34;7392240;19;20048;-57
2022/11/04 03:52:58;;;;;;;0.80;0.80;;;;;;;6.09;100.00;98873.25;7389021;19;20011;-57
2022/11/04 03:55:38;;;;;;;0.50;0.50;;;;;;;6.04;100.00;98874.66;7392705;19;20011;-57
2022/11/04 03:58:17;;;;;;;0.35;0.35;;;;;;;6.03;100.00;98884.22;7390907;19;20031;-58
2022/11/04 04:00:52;;;;;;;1.80;1.08;;;;;;;6.06;100.00;98888.78;7392382;19;20070;-58
2022/11/04 04:03:26;;;;;;;3.30;1.10;;;;;;;6.05;100.00;98898.31;7390828;19;20454;-57
2022/11/04 04:06:08;;;;;;;10.13;0.90;;;;;;;6.08;100.00;98907.69;7390691;19;20374;-57
2022/11/04 04:08:43;;;;;;;;;;;;;;;6.12;100.00;98913.78;7390043;19;20393;-57
2022/11/04 04:11:20;;;;;;;0.80;0.80;;;;;;;6.10;100.00;98921.78;7393793;19;20332;-57
2022/11/04 04:14:00;;;;;;;21.45;2.38;;;;;;;6.17;100.00;98923.44;7393325;19;20006;-57
2022/11/04 04:16:41;;;;;;;0.52;0.30;;;;;;;6.10;100.00;98930.84;7390138;19;20010;-57
2022/11/04 04:19:10;;;;;;;3.38;0.93;;;;;;;6.13;100.00;98932.66;7390120;19;20018;-58
2022/11/04 04:21:52;;;;;;;0.52;0.52;;;;;;;6.18;100.00;98945.09;7394133;19;20048;-57
2022/11/04 04:29:54;;;;;;;0.30;0.30;;;;;;;6.13;100.00;98967.09;7390834;19;20014;-57
2022/11/04 04:32:23;;;;;;;0.82;0.82;;;;;;;6.13;100.00;98974.13;7388028;19;20038;-58
2022/11/04 04:34:49;;;;;;;1.20;0.63;;;;;;;6.11;100.00;98976.59;7388420;19;20010;-57
2022/11/04 04:37:21;;;;;;;1.05;0.60;;;;;;;6.11;100.00;98987.66;7389273;19;20459;-57
2022/11/04 04:45:33;;;;;;;1.10;0.70;;;;;;;5.93;100.00;98996.00;7389332;19;20010;-58
2022/11/04 04:47:59;;;;;;;0.25;0.25;;;;;;;5.85;100.00;99013.38;7389077;19;20011;-58
2022/11/04 04:50:30;;;;;;;1.35;1.25;;;;;;;5.90;100.00;99018.28;7391377;19;20566;-57
2022/11/04 04:52:58;;;;;;;0.33;0.33;;;;;;;5.97;100.00;99023.47;7388711;19;20021;-57
2022/11/04 04:55:25;;;;;;;0.85;0.60;;;;;;;5.98;100.00;99025.78;7393158;19;20232;-57
2022/11/04 04:57:51;;;;;;;5.57;1.20;;;;;;;5.92;100.00;99033.16;7389068;19;20368;-57
2022/11/04 05:00:20;;;;;;;0.93;0.90;;;;;;;5.92;100.00;99033.16;7391388;19;20022;-58
2022/11/04 05:02:47;;;;;;;1.75;1.00;;;;;;;5.88;100.00;99038.09;7388479;19;20035;-57
2022/11/04 05:05:13;;;;;;;1.05;0.95;;;;;;;5.89;100.00;99047.88;7388413;19;20014;-57
2022/11/04 05:07:40;;;;;;;2.67;0.50;;;;;;;5.87;100.00;99047.59;7389117;19;20032;-57
2022/11/04 05:10:08;;;;;;;4.07;1.08;;;;;;;5.84;100.00;99054.06;7387675;19;20015;-57
2022/11/04 05:15:20;;;;;;;1.05;0.93;;;;;;;5.85;100.00;99083.22;7396646;19;20025;-57
2022/11/04 05:17:46;;;;;;;0.30;0.30;;;;;;;5.80;100.00;99085.81;7395897;19;20343;-57
2022/11/04 05:20:12;;;;;;;0.98;0.90;;;;;;;5.80;100.00;99097.63;7397661;19;20018;-57
2022/11/04 05:22:39;;;;;;;0.13;0.13;;;;;;;5.79;100.00;99101.59;7394347;19;20010;-57
2022/11/04 05:25:05;;;;;;;0.98;0.98;;;;;;;5.85;100.00;99108.06;7394528;19;20107;-58
2022/11/04 05:27:31;;;;;;;0.55;0.55;;;;;;;5.87;100.00;99100.09;7394718;19;20021;-58
2022/11/04 05:29:57;;;;;;;0.60;0.60;;;;;;;5.87;100.00;99111.13;7397121;19;20017;-57
2022/11/04 05:32:23;;;;;;;0.30;0.30;;;;;;;5.77;100.00;99109.59;7393835;19;20018;-58
2022/11/04 05:34:49;;;;;;;0.40;0.40;;;;;;;5.75;100.00;99116.81;7392110;19;20013;-57
2022/11/04 05:37:15;;;;;;;4.22;0.28;;;;;;;5.65;100.00;99118.78;7394180;19;20011;-57
2022/11/04 05:39:42;;;;;;;0.43;0.35;;;;;;;5.57;100.00;99116.78;7395076;19;20017;-57
2022/11/04 05:42:08;;;;;;;0.82;0.82;;;;;;;5.63;100.00;99110.19;7393310;19;20475;-58
2022/11/04 05:44:34;;;;;;;0.57;0.22;;;;;;;5.68;100.00;99119.88;7395272;19;20014;-58
2022/11/04 05:47:00;;;;;;;0.63;0.43;;;;;;;5.69;100.00;99124.94;7392486;19;20037;-58
2022/11/04 05:49:26;;;;;;;4.25;0.85;;;;;;;5.63;100.00;99126.75;7395069;19;20010;-57
2022/11/04 05:51:52;;;;;;;3.47;0.80;;;;;;;5.56;100.00;99140.13;7393699;19;20013;-58
2022/11/04 05:54:18;;;;;;;0.25;0.25;;;;;;;5.45;100.00;99143.34;7394163;19;20015;-58
2022/11/04 05:56:44;;;;;;;0.80;0.70;;;;;;;5.42;100.00;99144.25;7393492;19;20015;-57
2022/11/04 05:59:10;;;;;;;0.52;0.50;;;;;;;5.41;100.00;99147.47;7393656;19;20021;-57
2022/11/04 06:01:39;;;;;;;8.55;2.33;;;;;;;5.45;100.00;99148.84;7398824;19;20022;-58
2022/11/04 06:04:06;;;;;;;0.20;0.20;;;;;;;5.42;100.00;99155.28;7395232;19;20018;-57
2022/11/04 06:06:35;;;;;;;0.65;0.65;;;;;;;5.39;100.00;99159.72;7394191;19;20113;-57
2022/11/04 06:09:02;;;;;;;5.72;1.88;;;;;;;5.38;100.00;99160.97;7394329;19;20010;-57
2022/11/04 06:11:29;;;;;;;2.38;1.38;;;;;;;5.42;100.00;99168.31;7398787;19;20015;-57
2022/11/04 06:13:56;;;;;;;0.38;0.38;;;;;;;5.44;100.00;99169.41;7396572;19;20612;-58
2022/11/04 06:16:23;;;;;;;0.60;0.60;;;;;;;5.48;100.00;99174.78;7393164;19;20019;-58
2022/11/04 06:18:50;;;;;;;0.30;0.30;;;;;;;5.53;100.00;99172.19;7393286;19;20010;-58
2022/11/04 06:21:17;;;;;;;0.47;0.47;;;;;;;5.57;100.00;99172.03;7395629;19;20017;-58
2022/11/04 06:23:43;;;;;;;0.95;0.95;;;;;;;5.56;100.00;99179.56;7391628;19;20024;-58
2022/11/04 06:26:11;;;;;;;1.08;0.75;;;;;;;5.51;100.00;99187.66;7391798;19;20478;-58
2022/11/04 06:28:38;;;;;;;3.15;0.98;;;;;;;5.52;100.00;99181.69;7393671;19;20018;-58
2022/11/04 06:31:06;;;;;;;2.72;0.52;;;;;;;5.50;100.00;99197.19;7397113;19;20017;-58
2022/11/04 06:33:32;;;;;;;0.20;0.20;;;;;;;5.44;100.00;99197.00;7393042;19;20019;-58
2022/11/04 06:35:59;;;;;;;3.80;0.63;;;;;;;5.49;100.00;99193.66;7393821;19;20027;-58
2022/11/04 06:38:29;;;;;;;0.35;0.35;;;;;;;5.55;100.00;99191.03;7392469;19;20356;-58
2022/11/04 06:40:56;;;;;;;0.40;0.40;;;;;;;5.57;100.00;99200.41;7397218;19;20015;-58
2022/11/04 06:43:22;;;;;;;0.70;0.55;;;;;;;5.54;100.00;99206.09;7397234;19;20067;-58
2022/11/04 06:45:56;;;;;;;0.40;0.40;;;;;;;5.54;100.00;99201.34;7391264;19;20014;-58
2022/11/04 06:48:22;;;;;;;0.40;0.40;;;;;;;5.55;100.00;99213.91;7393734;19;20077;-58
2022/11/04 06:50:48;;;;;;;0.45;0.45;;;;;;;5.55;100.00;99224.97;7394852;19;20045;-58
2022/11/04 06:53:14;;;;;;;0.70;0.38;;;;;;;5.58;100.00;99232.34;7392653;19;20408;-58
2022/11/04 06:55:41;;;;;;;0.30;0.30;;;;;;;5.59;100.00;99231.09;7396383;19;20467;-58
2022/11/04 06:58:07;;;;;;;22.17;1.40;;;;;;;5.59;100.00;99242.16;7391909;19;20448;-58
2022/11/04 07:00:33;;;;;;;2.97;1.85;;;;;;;5.54;100.00;99240.00;7394370;19;20343;-58
2022/11/04 07:02:59;;;;;;;1.00;0.68;;;;;;;5.46;100.00;99246.28;7392327;19;20014;-58
2022/11/04 07:05:26;;;;;;;1.75;1.00;;;;;;;5.47;100.00;99245.81;7392520;19;20076;-58
2022/11/04 07:07:52;;;;;;;5.28;1.60;;;;;;;5.47;100.00;99248.56;7392065;19;20025;-58
2022/11/04 07:10:18;;;;;;;0.80;0.80;;;;;;;5.45;100.00;99256.53;7392272;19;20011;-58
2022/11/04 07:12:44;;;;;;;1.08;1.08;;;;;;;5.35;100.00;99263.22;7394586;19;20014;-58
2022/11/04 07:15:11;;;;;;;0.75;0.75;;;;;;;5.44;100.00;99270.78;7391514;19;20022;-58
2022/11/04 07:17:37;;;;;;;2.42;1.52;;;;;;;5.45;100.00;99281.41;7392133;19;20066;-58
2022/11/04 07:20:04;;;;;;;2.05;0.95;;;;;;;5.44;100.00;99279.06;7393459;19;20015;-58
2022/11/04 07:22:30;;;;;;;4.28;1.77;;;;;;;5.59;100.00;99291.13;7391931;19;20031;-58
2022/11/04 07:24:57;;;;;;;3.65;1.63;;;;;;;5.50;100.00;99305.63;7391930;19;20746;-58
2022/11/04 07:27:23;;;;;;;6.72;2.00;;;;;;;5.44;100.00;99306.69;7391647;19;20483;-58
2022/11/04 07:29:49;;;;;;;1.50;0.88;;;;;;;5.45;100.00;99303.47;7392560;19;20018;-58
2022/11/04 07:32:15;;;;;;;4.47;1.00;;;;;;;5.47;100.00;99303.78;7390804;19;20029;-58
2022/11/04 07:34:41;;;;;;;0.60;0.60;;;;;;;5.51;100.00;99307.19;7386595;19;20047;-58
2022/11/04 07:37:08;;;;;;;6.13;1.95;;;;;;;5.52;100.00;99307.97;7390942;19;20007;-58
2022/11/04 07:39:34;;;;;;;6.03;1.23;;;;;;;5.54;100.00;99309.03;7392132;19;20010;-58
2022/11/04 07:42:00;;;;;;;9.27;2.00;;;;;;;5.55;100.00;99307.81;7391558;19;20037;-58
2022/11/04 07:44:26;;;;;;;15.35;2.40;;;;;;;5.63;100.00;99322.13;7391725;19;20028;-58
2022/11/04 07:46:52;;;;;;;1.63;1.52;;;;;;;5.71;100.00;99320.59;7391330;19;20010;-58
2022/11/04 07:49:18;;;;;;;26.33;6.20;;;;;;;5.80;100.00;99328.94;7392090;19;20007;-59
2022/11/04 07:51:44;;;;;;;19.20;5.05;;;;;;;5.81;100.00;99328.47;7390741;19;20014;-59
2022/11/04 07:54:10;;;;;;;5.25;3.00;;;;;;;5.88;100.00;99328.22;7390380;19;20574;-59
2022/11/04 07:56:37;;;;;;;3.30;1.00;;;;;;;5.98;100.00;99338.06;7391267;19;20006;-59
2022/11/04 07:59:05;;;;;;;3.25;2.63;;;;;;;6.05;100.00;99337.78;7390050;19;20340;-58
2022/11/04 08:01:32;;;;;;;9.82;1.60;;;;;;;6.09;100.00;99341.16;7394944;19;20029;-59
2022/11/04 08:03:58;;;;;;;1.67;0.73;;;;;;;6.21;100.00;99344.25;7390196;19;20035;-58
2022/11/04 08:06:24;;;;;;;2.28;1.15;;;;;;;6.26;100.00;99344.41;7390425;19;20027;-58
2022/11/04 08:08:52;;;;;;;4.45;1.48;;;;;;;6.30;100.00;99347.03;7389648;19;20006;-59
2022/11/04 08:11:24;;;;;;;2.72;1.80;;;;;;;6.47;100.00;99342.75;7394707;19;20030;-58
2022/11/04 08:13:50;;;;;;;;;;;;;;;6.52;100.00;99347.69;7394489;19;20014;-59
2022/11/04 08:16:19;;;;;;;4.35;1.98;;;;;;;6.50;100.00;99350.88;7387465;19;19946;-59
2022/11/04 08:18:47;;;;;;;6.05;2.65;;;;;;;6.61;100.00;99347.66;7390056;19;20072;-58
2022/11/04 08:21:14;;;;;;;6.43;3.05;;;;;;;6.68;100.00;99350.13;7392957;19;20337;-58
2022/11/04 08:23:41;;;;;;;10.07;3.92;;;;;;;6.78;100.00;99351.66;7389701;19;20007;-58
2022/11/04 08:26:12;;;;;;;4.35;1.90;;;;;;;6.88;100.00;99361.50;7387955;19;20368;-58
2022/11/04 08:28:39;;;;;;;2.35;1.77;;;;;;;6.87;100.00;99354.41;7387361;19;20011;-58
2022/11/04 08:31:12;;;;;;;6.53;1.45;;;;;;;6.87;100.00;99359.94;7390911;19;20024;-58
2022/11/04 08:33:39;;;;;;;0.80;0.80;;;;;;;6.90;100.00;99359.03;7387670;19;20113;-58
2022/11/04 08:36:09;;;;;;;2.45;1.65;;;;;;;6.91;100.00;99363.34;7390447;19;20030;-59
2022/11/04 08:38:36;;;;;;;2.10;1.50;;;;;;;6.95;100.00;99355.66;7387351;19;20019;-59
2022/11/04 08:41:05;;;;;;;3.40;2.15;;;;;;;6.93;100.00;99369.16;7392639;19;20046;-59
2022/11/04 08:43:33;;;;;;;5.28;2.05;;;;;;;6.96;100.00;99368.25;7389130;19;20015;-58
2022/11/04 08:45:59;;;;;;;0.80;0.80;;;;;;;7.02;100.00;99366.41;7392084;19;20019;-58
2022/11/04 08:48:26;;;;;;;3.38;1.00;;;;;;;7.01;100.00;99375.19;7395255;19;20752;-59
2022/11/04 08:50:57;;;;;;;7.78;0.88;;;;;;;7.00;100.00;99385.47;7397857;19;20404;-59
2022/11/04 08:53:24;;;;;;;2.90;1.10;;;;;;;6.95;100.00;99374.25;7393359;19;20007;-59
2022/11/04 08:55:50;;;;;;;1.92;1.00;;;;;;;6.92;100.00;99381.50;7399587;19;20019;-59
2022/11/04 08:58:17;;;;;;;1.25;0.60;;;;;;;6.75;100.00;99385.81;7396832;19;20011;-59
2022/11/04 09:00:43;;;;;;;1.20;1.15;;;;;;;6.88;100.00;99389.19;7399383;19;20022;-59
2022/11/04 09:03:09;;;;;;;0.35;0.35;;;;;;;6.97;100.00;99397.50;7396471;19;20010;-58
2022/11/04 09:05:43;;;;;;;0.50;0.50;;;;;;;7.05;100.00;99401.47;7392759;19;20102;-58
2022/11/04 09:08:14;;;;;;;7.35;1.40;;;;;;;7.06;100.00;99405.75;7395306;19;20025;-59
2022/11/04 09:10:42;;;;;;;0.80;0.80;;;;;;;7.03;100.00;99398.41;7398566;19;20361;-58
2022/11/04 09:13:10;;;;;;;0.98;0.98;;;;;;;7.01;100.00;99402.84;7395264;19;20010;-59
2022/11/04 09:15:37;;;;;;;2.95;1.35;;;;;;;7.05;100.00;99393.16;7398162;19;20352;-58
2022/11/04 09:18:04;;;;;;;1.58;0.63;;;;;;;7.14;100.00;99395.94;7396171;19;20015;-58
2022/11/04 09:20:30;;;;;;;0.77;0.77;;;;;;;7.25;100.00;99399.00;7396630;19;20062;-58
2022/11/04 09:22:57;;;;;;;1.02;0.80;;;;;;;7.32;100.00;99401.44;7395716;19;20617;-58
2022/11/04 09:25:23;;;;;;;2.58;0.75;;;;;;;7.33;100.00;99405.75;7395701;19;20027;-58
2022/11/04 09:27:49;;;;;;;1.17;1.10;;;;;;;7.32;100.00;99401.44;7395353;19;20007;-58
2022/11/04 09:30:15;;;;;;;2.45;1.55;;;;;;;7.28;100.00;99417.44;7397588;19;20010;-58
2022/11/04 09:32:42;;;;;;;1.45;0.70;;;;;;;7.25;100.00;99410.06;7394044;19;20011;-64
2022/11/04 09:35:08;;;;;;;1.25;1.05;;;;;;;7.26;100.00;99413.59;7388371;19;20022;-64
2022/11/04 09:37:34;;;;;;;15.40;0.98;;;;;;;7.41;100.00;99415.25;7390989;19;20012;-64
2022/11/04 09:40:00;;;;;;;1.95;0.90;;;;;;;7.50;100.00;99420.78;7395210;19;20015;-64
2022/11/04 09:42:55;;;;;;;1.20;1.10;;;;;;;7.61;100.00;99423.84;7396729;19;20015;-64
2022/11/04 09:45:26;;;;;;;1.10;1.00;;;;;;;7.60;100.00;99422.28;7394365;19;20504;-64
2022/11/04 09:47:57;;;;;;;1.10;1.00;;;;;;;7.67;100.00;99426.75;7392809;19;20030;-64
2022/11/04 09:50:28;;;;;;;2.83;0.90;;;;;;;7.93;100.00;99427.13;7394735;19;20010;-64
2022/11/04 09:53:12;;;;;;;1.98;0.70;;;;;;;7.97;100.00;99427.75;7394523;19;20373;-63
2022/11/04 09:55:48;;;;;;;21.55;1.15;;;;;;;8.06;100.00;99430.47;7398665;19;20011;-63
2022/11/04 09:58:14;;;;;;;6.63;1.10;;;;;;;8.09;100.00;99430.31;7391258;19;20369;-64
2022/11/04 10:00:45;;;;;;;0.70;0.70;;;;;;;8.23;100.00;99423.28;7397557;19;20010;-64
2022/11/04 10:03:21;;;;;;;2.53;1.02;;;;;;;8.42;100.00;99438.66;7394043;19;20049;-63
2022/11/04 10:06:24;;;;;;;9.18;0.80;;;;;;;8.54;100.00;99443.19;7393422;19;20026;-63
2022/11/04 10:09:08;;;;;;;0.55;0.55;;;;;;;8.73;100.00;99444.63;7392920;19;20014;-64
2022/11/04 10:12:10;;;;;;;0.65;0.60;;;;;;;8.96;100.00;99454.97;7399748;19;20007;-64
2022/11/04 10:14:51;;;;;;;0.50;0.50;;;;;;;9.18;100.00;99458.16;7390296;19;20470;-63
2022/11/04 10:17:39;;;;;;;;;;;;;;;9.43;100.00;99450.53;7395031;19;20088;-64
2022/11/04 10:20:35;;;;;;;1.48;1.05;;;;;;;9.62;100.00;99466.56;7395134;19;20347;-64
2022/11/04 10:23:15;;;;;;;1.35;0.95;;;;;;;9.80;100.00;99469.16;7393148;19;20531;-64
2022/11/04 10:25:54;;;;;;;0.80;0.77;;;;;;;10.01;100.00;99467.22;7395532;19;20029;-63
2022/11/04 10:28:29;;;;;;;0.73;0.73;;;;;;;10.20;100.00;99471.34;7392988;19;20392;-63
2022/11/04 10:30:55;;;;;;;1.75;1.27;;;;;;;10.28;100.00;99475.28;7397089;19;20070;-63
2022/11/04 10:33:31;;;;;;;15.20;0.85;;;;;;;10.38;100.00;99473.91;7396521;19;20066;-63
2022/11/04 10:36:02;;;;;;;18.33;1.10;;;;;;;10.57;100.00;99458.50;7397116;19;20433;-63
2022/11/04 10:38:32;;;;;;;13.77;0.70;;;;;;;10.63;100.00;99478.09;7394904;19;20033;-63
2022/11/04 10:40:59;;;;;;;0.20;0.20;;;;;;;10.87;100.00;99491.84;7394499;19;20011;-63
2022/11/04 10:43:37;;;;;;;0.20;0.20;;;;;;;11.06;100.00;99493.09;7395747;19;20046;-63
2022/11/04 10:46:17;;;;;;;0.28;0.28;;;;;;;11.26;100.00;99479.16;7394683;19;19999;-63
2022/11/04 10:48:53;;;;;;;0.55;0.55;;;;;;;11.36;100.00;99484.09;7396608;19;20003;-63
2022/11/04 10:51:21;;;;;;;0.30;0.30;;;;;;;11.38;100.00;99491.97;7394745;19;20466;-64
2022/11/04 10:53:53;;;;;;;0.10;0.10;;;;;;;11.61;100.00;99487.41;7392565;19;20017;-63
2022/11/04 10:56:40;;;;;;;0.63;0.22;;;;;;;11.95;100.00;99489.28;7396212;19;20348;-63
2022/11/04 10:59:28;;;;;;;0.10;0.10;;;;;;;12.25;100.00;99496.13;7391369;19;20406;-62
2022/11/04 11:02:00;;;;;;;0.10;0.10;;;;;;;12.59;100.00;99486.72;7391209;19;20014;-62
2022/11/04 11:04:34;;;;;;;22.02;1.00;;;;;;;12.94;100.00;99494.81;7392392;19;20132;-62
2022/11/04 11:07:04;;;;;;;4.43;0.60;;;;;;;13.20;100.00;99495.47;7393010;19;20011;-62
2022/11/04 11:09:34;;;;;;;0.20;0.20;;;;;;;13.27;100.00;99500.59;7392999;19;20021;-62
2022/11/04 11:12:17;;;;;;;1.17;0.40;;;;;;;13.26;100.00;99504.63;7392898;19;20014;-62
2022/11/04 11:14:43;;;;;;;0.25;0.25;;;;;;;13.37;100.00;99507.47;7389795;19;20018;-63
2022/11/04 11:17:20;;;;;;;0.22;0.20;;;;;;;13.40;100.00;99508.50;7390645;19;20015;-63
2022/11/04 11:19:58;;;;;;;2.53;0.55;;;;;;;13.30;100.00;99493.19;7392319;19;20022;-63
2022/11/04 11:22:37;;;;;;;3.22;0.65;;;;;;;13.34;100.00;99494.50;7390920;19;20078;-63
2022/11/04 11:25:13;;;;;;;0.20;0.20;;;;;;;13.46;100.00;99496.06;7392654;19;20486;-63
2022/11/04 11:27:44;;;;;;;0.30;0.20;;;;;;;13.58;100.00;99491.25;7391318;19;20018;-63
2022/11/04 11:30:27;;;;;;;0.50;0.40;;;;;;;13.67;100.00;99482.63;7393442;19;20363;-63
2022/11/04 11:33:16;;;;;;;1.10;0.45;;;;;;;13.80;100.00;99496.13;7391318;19;20073;-63
2022/11/04 11:35:50;;;;;;;0.10;0.10;;;;;;;14.01;100.00;99500.25;7389676;19;20014;-63
2022/11/04 11:38:21;;;;;;;2.28;0.75;;;;;;;14.04;100.00;99502.03;7390902;19;20006;-63
2022/11/04 11:40:51;;;;;;;;;;;;;;;14.07;100.00;99499.00;7394844;19;20021;-63
2022/11/04 11:43:30;;;;;;;5.65;1.05;;;;;;;14.01;100.00;99500.25;7393703;19;19934;-64
2022/11/04 11:45:58;;;;;;;0.20;0.15;;;;;;;13.95;100.00;99503.03;7389330;19;20010;-64
2022/11/04 11:48:37;;;;;;;1.55;1.08;;;;;;;14.00;100.00;99505.09;7390230;19;20369;-64
2022/11/04 11:51:04;;;;;;;0.60;0.43;;;;;;;14.03;100.00;99522.91;7394624;19;20015;-64
2022/11/04 11:53:34;;;;;;;0.70;0.30;;;;;;;13.95;100.00;99525.44;7390280;19;20022;-63
2022/11/04 11:56:23;;;;;;;4.15;0.57;;;;;;;13.89;100.00;99532.28;7391566;19;20468;-64
2022/11/04 11:58:58;;;;;;;0.30;0.30;;;;;;;13.81;100.00;99528.47;7389557;19;20022;-64
2022/11/04 12:01:31;;;;;;;2.35;0.38;;;;;;;13.96;100.00;99520.59;7394026;19;20827;-64
2022/11/04 12:03:59;;;;;;;0.10;0.10;;;;;;;14.20;100.00;99530.06;7390032;19;20355;-64
2022/11/04 12:06:57;;;;;;;0.20;0.20;;;;;;;14.53;100.00;99539.78;7390396;19;20018;-64
2022/11/04 12:09:54;;;;;;;3.05;0.50;;;;;;;14.80;100.00;99542.53;7389007;19;20044;-64
2022/11/04 12:12:32;;;;;;;4.75;1.23;;;;;;;14.73;100.00;99537.44;7391585;19;20033;-64
2022/11/04 12:15:03;;;;;;;0.20;0.20;;;;;;;14.60;100.00;99534.41;7388384;19;20011;-64
2022/11/04 12:17:56;;;;;;;0.10;0.10;;;;;;;14.58;100.00;99536.94;7389601;19;20011;-64
2022/11/04 12:20:50;;;;;;;0.30;0.30;;;;;;;14.46;100.00;99549.44;7391143;19;20368;-64